Time;durP1;ratioP1;P1;durP2;ratioP2;P2;SDS_P1;SDS_P2;PMS_P1;PMS_P2;Temp;Humidity;BMP_temperature;BMP_pressure;BME280_temperature;BME280_humidity;BME280_pressure;Samples;Min_cycle;Max_cycle;Signal;HPM_P1;HPM_P2
2023/11/07 00:00:45;;;;;;;2.58;0.50;;;;;;;5.52;100.00;92673.22;2113477;28;20020;-81
2023/11/07 00:01:47;;;;;;;1.38;0.43;;;;;;;5.44;100.00;92677.06;2107214;28;20027;-76
2023/11/07 00:02:53;;;;;;;0.65;0.40;;;;;;;5.48;100.00;92673.22;2111831;28;20545;-78
2023/11/07 00:03:54;;;;;;;1.60;0.52;;;;;;;5.44;100.00;92672.50;2114550;28;20055;-78
2023/11/07 00:04:55;;;;;;;1.13;0.65;;;;;;;5.49;100.00;92666.81;2111459;28;20827;-77
2023/11/07 00:06:06;;;;;;;0.90;0.60;;;;;;;5.53;100.00;92672.84;2107631;28;20027;-78
2023/11/07 00:07:09;;;;;;;0.60;0.40;;;;;;;5.55;100.00;92667.88;2112687;28;20384;-82
2023/11/07 00:08:10;;;;;;;3.03;0.52;;;;;;;5.55;100.00;92670.53;2115464;28;20177;-77
2023/11/07 00:09:12;;;;;;;1.25;0.60;;;;;;;5.34;100.00;92670.72;2108620;28;20026;-78
2023/11/07 00:10:13;;;;;;;3.40;0.55;;;;;;;5.33;100.00;92668.47;2106914;28;20051;-79
2023/11/07 00:11:14;;;;;;;2.38;0.45;;;;;;;5.44;100.00;92661.91;2110682;28;20047;-80
2023/11/07 00:12:16;;;;;;;0.80;0.38;;;;;;;5.48;100.00;92667.94;2109750;28;20024;-82
2023/11/07 00:13:16;;;;;;;0.80;0.60;;;;;;;5.46;100.00;92664.94;2106732;28;20507;-79
2023/11/07 00:14:21;;;;;;;0.70;0.60;;;;;;;5.35;100.00;92672.22;2107591;28;20055;-82
2023/11/07 00:15:25;;;;;;;2.28;0.43;;;;;;;5.49;100.00;92669.47;2115128;28;20504;-77
2023/11/07 00:16:27;;;;;;;0.93;0.70;;;;;;;5.59;100.00;92670.50;2110277;28;20020;-80
2023/11/07 00:17:29;;;;;;;0.95;0.40;;;;;;;5.60;100.00;92672.00;2106636;28;20020;-80
2023/11/07 00:18:29;;;;;;;0.50;0.50;;;;;;;5.67;100.00;92674.56;2100879;28;20114;-77
2023/11/07 00:19:30;;;;;;;1.83;0.40;;;;;;;5.56;100.00;92668.63;2102640;28;20031;-78
2023/11/07 00:20:31;;;;;;;0.70;0.45;;;;;;;5.55;100.00;92664.47;2111651;28;20019;-77
2023/11/07 00:21:33;;;;;;;0.50;0.40;;;;;;;5.48;100.00;92667.19;2115916;28;20460;-82
2023/11/07 00:22:34;;;;;;;1.50;0.40;;;;;;;5.46;100.00;92678.19;2107804;28;20475;-77
2023/11/07 00:23:35;;;;;;;2.33;0.50;;;;;;;5.45;100.00;92668.00;2104242;28;20028;-76
2023/11/07 00:24:36;;;;;;;1.23;0.50;;;;;;;5.24;100.00;92679.53;2109969;28;20052;-78
2023/11/07 00:25:37;;;;;;;1.73;0.45;;;;;;;5.30;100.00;92670.75;2109511;28;20107;-78
2023/11/07 00:26:38;;;;;;;2.65;0.50;;;;;;;5.23;100.00;92664.78;2115593;28;20019;-81
2023/11/07 00:27:39;;;;;;;4.70;0.95;;;;;;;5.21;100.00;92667.06;2113316;28;20015;-81
2023/11/07 00:28:40;;;;;;;1.42;0.40;;;;;;;5.43;100.00;92667.63;2115954;28;20024;-78
2023/11/07 00:29:41;;;;;;;4.53;0.40;;;;;;;5.42;100.00;92663.47;2116141;28;20054;-81
2023/11/07 00:30:42;;;;;;;1.23;0.50;;;;;;;5.42;100.00;92666.13;2109522;28;20102;-79
2023/11/07 00:31:43;;;;;;;0.60;0.30;;;;;;;5.43;100.00;92667.63;2115239;28;20076;-79
2023/11/07 00:32:44;;;;;;;1.35;0.40;;;;;;;5.33;100.00;92663.94;2115742;28;20439;-77
2023/11/07 00:33:45;;;;;;;0.50;0.40;;;;;;;5.28;100.00;92662.47;2104528;28;20426;-80
2023/11/07 00:34:46;;;;;;;1.50;0.60;;;;;;;5.30;100.00;92660.16;2092141;28;20485;-82
2023/11/07 00:35:46;;;;;;;0.60;0.32;;;;;;;5.08;100.00;92663.38;2098569;28;20032;-79
2023/11/07 00:36:48;;;;;;;0.80;0.50;;;;;;;5.22;100.00;92668.56;2109210;27;20126;-78
2023/11/07 00:37:51;;;;;;;1.75;0.60;;;;;;;5.29;100.00;92665.84;2114311;28;20426;-80
2023/11/07 00:38:52;;;;;;;0.47;0.30;;;;;;;5.26;100.00;92661.34;2104291;28;20051;-77
2023/11/07 00:39:53;;;;;;;1.08;0.40;;;;;;;5.14;100.00;92661.84;2114791;28;20503;-82
2023/11/07 00:40:54;;;;;;;0.50;0.30;;;;;;;5.03;100.00;92652.06;2115711;28;20027;-79
2023/11/07 00:41:56;;;;;;;0.50;0.40;;;;;;;4.97;100.00;92656.28;2110783;28;20031;-80
2023/11/07 00:42:57;;;;;;;0.32;0.30;;;;;;;5.07;100.00;92657.34;2104944;28;20464;-78
2023/11/07 00:44:00;;;;;;;2.83;0.60;;;;;;;5.12;100.00;92661.47;2105337;28;20015;-79
2023/11/07 00:45:01;;;;;;;0.80;0.38;;;;;;;5.12;100.00;92643.69;2108851;28;20035;-81
2023/11/07 00:46:03;;;;;;;2.47;0.50;;;;;;;5.21;100.00;92653.81;2090371;28;20032;-81
2023/11/07 00:47:04;;;;;;;0.50;0.40;;;;;;;5.09;100.00;92655.03;2096591;28;20519;-80
2023/11/07 00:48:05;;;;;;;0.55;0.50;;;;;;;5.12;100.00;92653.53;2108279;28;20431;-84
2023/11/07 00:49:06;;;;;;;3.13;0.80;;;;;;;5.04;100.00;92653.56;2109153;28;20023;-80
2023/11/07 00:50:10;;;;;;;0.60;0.60;;;;;;;5.18;100.00;92658.00;2099476;28;20799;-80
2023/11/07 00:51:11;;;;;;;0.63;0.40;;;;;;;5.20;100.00;92660.25;2096613;28;20496;-81
2023/11/07 00:52:12;;;;;;;0.75;0.40;;;;;;;5.22;100.00;92663.25;2102097;28;20024;-82
2023/11/07 00:53:13;;;;;;;1.05;0.45;;;;;;;5.04;100.00;92661.50;2115194;28;20011;-80
2023/11/07 00:54:14;;;;;;;2.08;0.50;;;;;;;5.14;100.00;92661.84;2108483;28;20052;-79
2023/11/07 00:55:15;;;;;;;1.67;0.50;;;;;;;5.22;100.00;92669.34;2111759;28;20011;-77
2023/11/07 00:56:17;;;;;;;0.98;0.45;;;;;;;5.21;100.00;92659.88;2110091;28;20067;-78
2023/11/07 00:57:18;;;;;;;3.50;0.40;;;;;;;4.98;100.00;92667.63;2107316;28;20094;-80
2023/11/07 00:58:22;;;;;;;2.67;0.40;;;;;;;5.02;100.00;92671.75;2115263;28;20028;-77
2023/11/07 00:59:23;;;;;;;2.13;0.57;;;;;;;5.12;100.00;92669.41;2112728;28;20023;-79
2023/11/07 01:00:33;;;;;;;1.27;0.40;;;;;;;5.11;100.00;92668.66;2107640;28;20024;-79
2023/11/07 01:01:34;;;;;;;0.65;0.50;;;;;;;5.19;100.00;92664.06;2114821;28;20028;-80
2023/11/07 01:02:35;;;;;;;0.85;0.32;;;;;;;5.17;100.00;92658.38;2115019;28;20027;-76
2023/11/07 01:03:36;;;;;;;0.38;0.32;;;;;;;5.14;100.00;92659.19;2114297;28;20019;-80
2023/11/07 01:04:37;;;;;;;0.70;0.40;;;;;;;5.27;100.00;92653.00;2109768;28;20016;-76
2023/11/07 01:05:38;;;;;;;1.50;0.40;;;;;;;5.19;100.00;92667.47;2106667;28;20050;-80
2023/11/07 01:06:39;;;;;;;1.55;0.40;;;;;;;5.25;100.00;92657.19;2107163;28;20024;-81
2023/11/07 01:07:40;;;;;;;1.73;0.50;;;;;;;5.32;100.00;92656.38;2114487;28;20019;-80
2023/11/07 01:08:41;;;;;;;0.30;0.30;;;;;;;5.34;100.00;92665.44;2094492;28;20028;-79
2023/11/07 01:09:42;;;;;;;0.35;0.35;;;;;;;5.38;100.00;92660.09;2098227;28;20446;-80
2023/11/07 01:10:43;;;;;;;0.57;0.57;;;;;;;5.52;100.00;92665.25;2107283;28;20457;-78
2023/11/07 01:11:44;;;;;;;1.85;0.40;;;;;;;5.36;100.00;92660.50;2106539;28;20357;-78
2023/11/07 01:12:46;;;;;;;2.70;0.45;;;;;;;5.50;100.00;92670.22;2109650;28;20034;-79
2023/11/07 01:13:47;;;;;;;1.77;0.50;;;;;;;5.44;100.00;92656.63;2105824;28;20016;-81
2023/11/07 01:14:48;;;;;;;0.90;0.52;;;;;;;5.44;100.00;92656.63;2101268;28;20044;-77
2023/11/07 01:15:48;;;;;;;0.40;0.40;;;;;;;5.37;100.00;92658.59;2109671;28;20035;-81
2023/11/07 01:16:50;;;;;;;2.10;0.57;;;;;;;5.32;100.00;92662.44;2111808;28;20491;-82
2023/11/07 01:17:51;;;;;;;1.20;0.30;;;;;;;5.25;100.00;92660.59;2099490;28;20028;-81
2023/11/07 01:18:52;;;;;;;1.10;0.38;;;;;;;5.39;100.00;92662.34;2105494;28;20389;-81
2023/11/07 01:19:53;;;;;;;0.52;0.40;;;;;;;5.38;100.00;92650.25;2107506;28;20050;-80
2023/11/07 01:20:54;;;;;;;0.45;0.30;;;;;;;5.32;100.00;92651.09;2109726;28;20479;-83
2023/11/07 01:21:55;;;;;;;0.30;0.30;;;;;;;5.37;100.00;92648.00;2105674;28;20115;-77
2023/11/07 01:22:56;;;;;;;3.05;0.45;;;;;;;5.31;100.00;92658.25;2101269;28;20838;-78
2023/11/07 01:23:57;;;;;;;0.57;0.43;;;;;;;5.35;100.00;92658.22;2100804;28;20106;-77
2023/11/07 01:24:58;;;;;;;1.17;0.40;;;;;;;5.47;100.00;92663.78;2086361;28;20075;-80
2023/11/07 01:26:02;;;;;;;1.77;0.40;;;;;;;5.49;100.00;92666.06;2098878;28;20044;-77
2023/11/07 01:27:04;;;;;;;0.40;0.40;;;;;;;5.53;100.00;92664.88;2106490;28;20024;-79
2023/11/07 01:28:05;;;;;;;0.50;0.30;;;;;;;5.51;100.00;92663.75;2093090;28;20083;-81
2023/11/07 01:29:06;;;;;;;0.93;0.40;;;;;;;5.48;100.00;92664.53;2089918;28;20028;-79
2023/11/07 01:30:09;;;;;;;0.40;0.40;;;;;;;5.48;100.00;92664.53;2105660;28;20024;-80
2023/11/07 01:31:10;;;;;;;0.70;0.47;;;;;;;5.47;100.00;92661.13;2102305;28;20024;-80
2023/11/07 01:32:11;;;;;;;1.45;0.40;;;;;;;5.63;100.00;92662.50;2081504;28;20025;-79
2023/11/07 01:33:12;;;;;;;0.90;0.45;;;;;;;5.61;100.00;92660.22;2106406;28;20023;-82
2023/11/07 01:34:14;;;;;;;0.60;0.43;;;;;;;5.50;100.00;92659.59;2114475;28;20070;-80
2023/11/07 01:35:15;;;;;;;3.13;0.50;;;;;;;5.51;100.00;92661.84;2114597;28;20049;-75
2023/11/07 01:36:16;;;;;;;2.65;0.50;;;;;;;5.35;100.00;92663.53;2107162;28;20120;-78
2023/11/07 01:37:17;;;;;;;1.20;0.50;;;;;;;5.56;100.00;92663.31;2111351;28;20049;-79
2023/11/07 01:38:18;;;;;;;0.55;0.40;;;;;;;5.59;100.00;92667.09;2114324;28;20112;-78
2023/11/07 01:39:19;;;;;;;2.42;0.38;;;;;;;5.58;100.00;92665.59;2107108;28;20050;-79
2023/11/07 01:40:20;;;;;;;0.40;0.40;;;;;;;5.62;100.00;92656.47;2112211;28;20046;-79
2023/11/07 01:41:21;;;;;;;1.05;0.50;;;;;;;5.51;100.00;92661.09;2106477;28;20020;-80
2023/11/07 01:42:22;;;;;;;1.55;0.50;;;;;;;5.60;100.00;92655.34;2114784;28;20419;-80
2023/11/07 01:43:23;;;;;;;1.50;0.47;;;;;;;5.57;100.00;92662.16;2110008;28;20103;-79
2023/11/07 01:44:28;;;;;;;1.63;0.40;;;;;;;5.59;100.00;92659.88;2106773;28;20483;-78
2023/11/07 01:45:29;;;;;;;1.77;0.40;;;;;;;5.60;100.00;92655.34;2106496;28;20024;-77
2023/11/07 01:46:31;;;;;;;0.40;0.30;;;;;;;5.44;100.00;92655.88;2106222;28;20024;-77
2023/11/07 01:47:32;;;;;;;1.92;0.60;;;;;;;5.44;100.00;92663.81;2097574;28;20036;-78
2023/11/07 01:48:33;;;;;;;1.15;0.45;;;;;;;5.46;100.00;92667.59;2106276;28;20099;-80
2023/11/07 01:49:34;;;;;;;0.50;0.40;;;;;;;5.27;100.00;92668.16;2108111;28;20493;-77
2023/11/07 01:50:36;;;;;;;0.45;0.40;;;;;;;5.34;100.00;92670.72;2113107;28;20024;-81
2023/11/07 01:51:37;;;;;;;1.20;0.38;;;;;;;5.34;100.00;92668.06;2109154;28;20471;-76
2023/11/07 01:52:40;;;;;;;2.50;0.40;;;;;;;5.40;100.00;92666.53;2106569;28;20024;-78
2023/11/07 01:53:41;;;;;;;0.90;0.50;;;;;;;5.43;100.00;92675.56;2112494;28;20023;-80
2023/11/07 01:54:44;;;;;;;0.90;0.45;;;;;;;5.42;100.00;92666.88;2106093;28;20027;-78
2023/11/07 01:55:45;;;;;;;4.13;0.40;;;;;;;5.41;100.00;92669.91;2106048;28;20088;-78
2023/11/07 01:56:46;;;;;;;0.95;0.40;;;;;;;5.35;100.00;92669.56;2106366;28;20024;-82
2023/11/07 01:57:47;;;;;;;0.32;0.32;;;;;;;5.40;100.00;92663.88;2108695;28;20039;-80
2023/11/07 01:58:50;;;;;;;1.95;0.43;;;;;;;5.42;100.00;92669.53;2097940;28;20023;-79
2023/11/07 01:59:52;;;;;;;1.23;0.65;;;;;;;5.36;100.00;92671.09;2098153;28;20441;-78
2023/11/07 02:00:55;;;;;;;0.70;0.40;;;;;;;5.46;100.00;92670.25;2098100;28;20028;-81
2023/11/07 02:02:00;;;;;;;0.68;0.40;;;;;;;5.59;100.00;92664.44;2088823;28;20017;-77
2023/11/07 02:03:01;;;;;;;2.60;0.30;;;;;;;5.60;100.00;92671.25;2090638;28;20452;-80
2023/11/07 02:04:08;;;;;;;0.75;0.30;;;;;;;5.46;100.00;92667.59;2109527;28;20027;-79
2023/11/07 02:05:12;;;;;;;0.93;0.30;;;;;;;5.50;100.00;92668.31;2110767;28;20093;-78
2023/11/07 02:06:13;;;;;;;1.17;0.47;;;;;;;5.53;100.00;92667.53;2112738;28;20019;-79
2023/11/07 02:07:14;;;;;;;0.47;0.40;;;;;;;5.64;100.00;92667.41;2089433;28;20021;-80
2023/11/07 02:08:15;;;;;;;0.75;0.55;;;;;;;5.49;100.00;92674.75;2095058;28;20027;-80
2023/11/07 02:09:16;;;;;;;0.77;0.40;;;;;;;5.64;100.00;92667.41;2106396;28;20024;-78
2023/11/07 02:10:19;;;;;;;1.55;0.40;;;;;;;5.69;100.00;92668.88;2106535;28;20031;-80
2023/11/07 02:11:20;;;;;;;0.45;0.40;;;;;;;5.71;100.00;92677.19;2106674;28;20031;-76
2023/11/07 02:12:21;;;;;;;1.50;0.40;;;;;;;5.78;100.00;92677.09;2106817;28;20028;-79
2023/11/07 02:13:22;;;;;;;1.75;0.55;;;;;;;5.77;100.00;92686.22;2114518;28;20475;-78
2023/11/07 02:14:27;;;;;;;0.40;0.40;;;;;;;5.77;100.00;92683.56;2112385;28;20029;-81
2023/11/07 02:15:32;;;;;;;1.58;0.47;;;;;;;5.73;100.00;92690.81;2105793;28;20048;-79
2023/11/07 02:16:33;;;;;;;0.35;0.30;;;;;;;5.68;100.00;92683.28;2106078;28;20020;-80
2023/11/07 02:17:34;;;;;;;1.63;0.40;;;;;;;5.66;100.00;92686.31;2106601;28;20460;-79
2023/11/07 02:18:35;;;;;;;0.40;0.40;;;;;;;5.42;100.00;92692.63;2102419;28;20028;-79
2023/11/07 02:19:36;;;;;;;1.05;0.40;;;;;;;5.50;100.00;92688.75;2114095;28;20452;-81
2023/11/07 02:20:38;;;;;;;1.08;0.52;;;;;;;5.55;100.00;92691.72;2109387;28;20023;-80
2023/11/07 02:21:39;;;;;;;0.57;0.52;;;;;;;5.50;100.00;92689.50;2102392;28;20024;-77
2023/11/07 02:24:03;;;;;;;0.47;0.45;;;;;;;4.58;100.00;92688.34;2139566;27;20165;-79
2023/11/07 02:25:05;;;;;;;0.40;0.40;;;;;;;4.65;100.00;92688.28;2130074;27;20035;-81
2023/11/07 02:26:06;;;;;;;0.80;0.60;;;;;;;4.58;100.00;92693.63;2116930;27;20023;-78
2023/11/07 02:27:07;;;;;;;2.97;0.60;;;;;;;4.49;100.00;92693.31;2122121;27;20034;-83
2023/11/07 02:28:08;;;;;;;0.60;0.60;;;;;;;4.53;100.00;92689.50;2120167;28;20066;-80
2023/11/07 02:29:10;;;;;;;0.43;0.43;;;;;;;4.68;100.00;92689.41;2121895;27;20024;-77
2023/11/07 02:30:12;;;;;;;0.73;0.60;;;;;;;4.59;100.00;92689.09;2127771;27;20046;-81
2023/11/07 02:31:13;;;;;;;0.70;0.60;;;;;;;4.67;100.00;92687.91;2121829;28;20034;-83
2023/11/07 02:32:15;;;;;;;2.70;0.60;;;;;;;4.65;100.00;92682.25;2122047;27;20020;-82
2023/11/07 02:33:16;;;;;;;1.55;0.70;;;;;;;4.64;100.00;92686.03;2132803;27;20025;-78
2023/11/07 02:34:17;;;;;;;1.95;0.63;;;;;;;4.70;100.00;92681.84;2119619;27;20020;-78
2023/11/07 02:35:18;;;;;;;1.17;0.77;;;;;;;4.74;100.00;92683.34;2122083;27;20074;-79
2023/11/07 02:36:19;;;;;;;0.50;0.50;;;;;;;4.77;100.00;92687.84;2139026;27;20027;-79
2023/11/07 02:37:21;;;;;;;1.17;0.50;;;;;;;4.77;100.00;92681.78;2131236;27;20467;-77
2023/11/07 02:38:22;;;;;;;1.95;0.88;;;;;;;4.82;100.00;92678.72;2131986;27;20487;-79
2023/11/07 02:39:23;;;;;;;1.05;0.57;;;;;;;5.04;100.00;92669.47;2109743;28;20142;-82
2023/11/07 02:40:24;;;;;;;0.82;0.60;;;;;;;5.27;100.00;92686.72;2113266;28;20460;-78
2023/11/07 02:41:27;;;;;;;1.20;0.68;;;;;;;5.23;100.00;92685.97;2122550;27;20051;-80
2023/11/07 02:42:29;;;;;;;1.25;0.60;;;;;;;5.06;100.00;92679.69;2113898;27;20397;-78
2023/11/07 02:43:30;;;;;;;0.50;0.50;;;;;;;4.89;100.00;92686.63;2121958;27;20088;-80
2023/11/07 02:44:31;;;;;;;0.90;0.60;;;;;;;4.79;100.00;92690.09;2137622;27;20027;-80
2023/11/07 02:45:36;;;;;;;1.58;0.57;;;;;;;4.90;100.00;92690.03;2121869;28;20495;-79
2023/11/07 02:46:40;;;;;;;0.93;0.57;;;;;;;4.77;100.00;92684.44;2114542;27;20388;-79
2023/11/07 02:47:41;;;;;;;1.20;0.50;;;;;;;4.77;100.00;92677.25;2122268;27;20070;-80
2023/11/07 02:48:41;;;;;;;0.50;0.50;;;;;;;4.79;100.00;92668.94;2121775;27;20027;-79
2023/11/07 02:49:42;;;;;;;0.60;0.47;;;;;;;4.85;100.00;92685.16;2124192;27;20019;-77
2023/11/07 02:50:44;;;;;;;0.60;0.60;;;;;;;4.67;100.00;92680.72;2133020;27;20027;-78
2023/11/07 02:51:45;;;;;;;2.75;0.70;;;;;;;4.84;100.00;92686.28;2135810;27;20018;-81
2023/11/07 02:52:46;;;;;;;2.63;0.60;;;;;;;4.84;100.00;92681.75;2133874;27;20022;-79
2023/11/07 02:53:47;;;;;;;0.65;0.50;;;;;;;4.80;100.00;92678.38;2135508;27;20015;-81
2023/11/07 02:54:49;;;;;;;1.48;0.55;;;;;;;4.86;100.00;92682.09;2134593;27;20018;-80
2023/11/07 02:55:50;;;;;;;3.60;0.82;;;;;;;4.84;100.00;92681.00;2126718;27;20027;-79
2023/11/07 02:56:51;;;;;;;1.35;0.70;;;;;;;4.81;100.00;92679.88;2121772;28;20020;-82
2023/11/07 02:57:52;;;;;;;2.55;0.70;;;;;;;5.04;100.00;92674.75;2127080;27;20019;-83
2023/11/07 02:58:53;;;;;;;2.40;0.60;;;;;;;5.27;100.00;92676.09;2130347;27;20027;-79
2023/11/07 02:59:54;;;;;;;3.60;0.73;;;;;;;5.27;100.00;92670.81;2128698;27;20378;-79
2023/11/07 03:00:55;;;;;;;1.75;0.50;;;;;;;5.26;100.00;92674.59;2117427;27;20031;-81
2023/11/07 03:02:03;;;;;;;0.40;0.40;;;;;;;5.22;100.00;92674.63;2130246;27;20049;-81
2023/11/07 03:03:04;;;;;;;3.50;0.50;;;;;;;5.27;100.00;92668.16;2139235;27;20401;-81
2023/11/07 03:04:05;;;;;;;2.65;0.50;;;;;;;5.13;100.00;92674.31;2131746;27;20019;-82
2023/11/07 03:05:07;;;;;;;1.70;0.60;;;;;;;5.21;100.00;92673.13;2124782;27;20106;-81
2023/11/07 03:06:08;;;;;;;5.03;0.60;;;;;;;5.19;100.00;92669.38;2130203;27;20050;-77
2023/11/07 03:07:09;;;;;;;1.33;0.70;;;;;;;5.20;100.00;92661.00;2130945;27;20022;-80
2023/11/07 03:08:10;;;;;;;2.50;0.57;;;;;;;5.23;100.00;92665.53;2127909;27;20022;-80
2023/11/07 03:09:11;;;;;;;3.28;0.75;;;;;;;5.23;100.00;92670.09;2138864;27;20021;-77
2023/11/07 03:10:13;;;;;;;4.35;0.93;;;;;;;5.24;100.00;92668.94;2138724;27;20101;-77
2023/11/07 03:11:14;;;;;;;1.85;0.82;;;;;;;5.26;100.00;92658.69;2130041;27;20050;-80
2023/11/07 03:12:16;;;;;;;0.50;0.50;;;;;;;5.30;100.00;92664.72;2130206;27;20030;-79
2023/11/07 03:13:19;;;;;;;1.85;0.73;;;;;;;5.34;100.00;92660.13;2126780;27;20015;-79
2023/11/07 03:14:20;;;;;;;1.35;0.65;;;;;;;5.34;100.00;92660.13;2120689;28;20081;-82
2023/11/07 03:15:21;;;;;;;1.52;0.70;;;;;;;5.32;100.00;92656.38;2113064;28;20070;-80
2023/11/07 03:16:22;;;;;;;1.75;0.70;;;;;;;5.28;100.00;92656.41;2121413;28;20023;-81
2023/11/07 03:17:26;;;;;;;0.55;0.43;;;;;;;5.30;100.00;92662.06;2124216;27;20494;-78
2023/11/07 03:18:27;;;;;;;1.55;0.52;;;;;;;5.29;100.00;92657.91;2127394;27;20059;-79
2023/11/07 03:19:28;;;;;;;1.67;0.60;;;;;;;5.28;100.00;92665.09;2113144;28;20032;-80
2023/11/07 03:20:29;;;;;;;2.58;0.80;;;;;;;5.38;100.00;92655.53;2122447;27;20027;-78
2023/11/07 03:21:30;;;;;;;2.30;0.60;;;;;;;5.40;100.00;92649.84;2130439;27;20105;-80
2023/11/07 03:22:41;;;;;;;3.47;0.70;;;;;;;5.35;100.00;92660.88;2122134;27;20027;-81
2023/11/07 03:23:42;;;;;;;3.40;0.60;;;;;;;5.36;100.00;92657.84;2135002;27;20447;-81
2023/11/07 03:24:43;;;;;;;3.65;0.80;;;;;;;5.43;100.00;92654.38;2129931;27;20023;-77
2023/11/07 03:25:44;;;;;;;2.22;0.90;;;;;;;5.66;100.00;92665.09;2134133;27;20023;-81
2023/11/07 03:26:45;;;;;;;0.60;0.55;;;;;;;5.66;100.00;92664.34;2138629;27;20413;-82
2023/11/07 03:27:47;;;;;;;1.30;0.60;;;;;;;5.58;100.00;92662.94;2133133;27;20483;-76
2023/11/07 03:28:48;;;;;;;2.88;0.80;;;;;;;5.62;100.00;92661.75;2130196;27;20067;-80
2023/11/07 03:29:48;;;;;;;1.30;0.55;;;;;;;5.53;100.00;92666.75;2121486;27;20560;-77
2023/11/07 03:30:49;;;;;;;2.53;1.00;;;;;;;5.66;100.00;92661.69;2129631;27;20027;-79
2023/11/07 03:31:53;;;;;;;2.47;1.13;;;;;;;5.58;100.00;92665.59;2121398;28;20054;-82
2023/11/07 03:32:55;;;;;;;1.05;0.57;;;;;;;5.41;100.00;92668.03;2113726;27;20141;-78
2023/11/07 03:33:56;;;;;;;2.60;0.80;;;;;;;5.49;100.00;92666.06;2121588;27;20022;-82
2023/11/07 03:34:57;;;;;;;2.78;0.68;;;;;;;5.64;100.00;92656.06;2126856;27;20672;-79
2023/11/07 03:36:00;;;;;;;2.92;0.68;;;;;;;5.56;100.00;92672.03;2124152;27;20027;-80
2023/11/07 03:37:02;;;;;;;2.75;0.70;;;;;;;5.59;100.00;92659.13;2107599;28;20055;-77
2023/11/07 03:38:02;;;;;;;3.75;0.60;;;;;;;5.61;100.00;92659.47;2115759;27;20429;-81
2023/11/07 03:39:04;;;;;;;1.42;0.60;;;;;;;5.56;100.00;92664.06;2117516;27;20106;-81
2023/11/07 03:40:06;;;;;;;2.80;0.70;;;;;;;5.54;100.00;92660.31;2115625;28;20020;-77
2023/11/07 03:41:08;;;;;;;2.75;0.70;;;;;;;5.52;100.00;92658.06;2109633;28;20038;-77
2023/11/07 03:42:09;;;;;;;2.47;0.60;;;;;;;5.54;100.00;92670.94;2120798;27;20098;-81
2023/11/07 03:43:40;;;;;;;0.73;0.60;;;;;;;5.57;100.00;92667.47;2132762;27;20413;-80
2023/11/07 03:44:41;;;;;;;1.75;0.43;;;;;;;5.63;100.00;92662.50;2121741;27;20106;-79
2023/11/07 03:45:42;;;;;;;1.42;0.70;;;;;;;5.79;100.00;92662.69;2107260;28;20028;-81
2023/11/07 03:46:43;;;;;;;3.17;0.80;;;;;;;5.62;100.00;92659.09;2115587;28;20019;-80
2023/11/07 03:47:44;;;;;;;0.82;0.55;;;;;;;5.62;100.00;92658.34;2111805;28;20468;-80
2023/11/07 03:48:45;;;;;;;1.42;0.70;;;;;;;5.51;100.00;92656.56;2106343;28;20024;-78
2023/11/07 03:49:46;;;;;;;1.42;0.50;;;;;;;5.33;100.00;92650.69;2096477;28;20021;-80
2023/11/07 03:50:47;;;;;;;0.70;0.43;;;;;;;5.40;100.00;92647.97;2108506;28;20015;-80
2023/11/07 03:51:48;;;;;;;2.53;0.60;;;;;;;5.30;100.00;92651.47;2127382;27;20020;-82
2023/11/07 03:52:49;;;;;;;1.45;0.70;;;;;;;5.25;100.00;92655.28;2131422;27;20459;-78
2023/11/07 03:53:50;;;;;;;1.02;0.60;;;;;;;5.20;100.00;92658.38;2128853;27;20495;-78
2023/11/07 03:54:51;;;;;;;3.17;0.77;;;;;;;5.34;100.00;92654.81;2115547;27;20073;-79
2023/11/07 03:55:52;;;;;;;1.30;0.63;;;;;;;5.00;100.00;92663.47;2119550;27;20073;-81
2023/11/07 03:56:53;;;;;;;3.03;0.50;;;;;;;4.99;100.00;92664.59;2115497;28;20015;-80
2023/11/07 03:57:54;;;;;;;2.58;0.70;;;;;;;4.76;100.00;92667.03;2115474;27;20028;-80
2023/11/07 03:58:55;;;;;;;1.40;0.55;;;;;;;4.87;100.00;92662.41;2123919;27;20023;-80
2023/11/07 03:59:56;;;;;;;0.98;0.50;;;;;;;4.91;100.00;92665.78;2123172;27;20521;-82
2023/11/07 04:00:57;;;;;;;4.22;0.60;;;;;;;4.88;100.00;92665.84;2123499;27;20019;-81
2023/11/07 04:02:00;;;;;;;1.15;0.63;;;;;;;4.82;100.00;92670.78;2124118;27;20092;-80
2023/11/07 04:03:01;;;;;;;2.00;0.77;;;;;;;4.74;100.00;92666.66;2116728;27;20665;-82
2023/11/07 04:04:03;;;;;;;1.45;0.60;;;;;;;4.73;100.00;92665.16;2115956;28;20028;-79
2023/11/07 04:05:04;;;;;;;1.35;0.50;;;;;;;4.66;100.00;92671.28;2115325;28;20038;-81
2023/11/07 04:06:05;;;;;;;1.08;0.60;;;;;;;4.67;100.00;92662.19;2106936;28;20727;-80
2023/11/07 04:07:06;;;;;;;2.53;0.55;;;;;;;4.77;100.00;92664.00;2107044;28;20492;-82
2023/11/07 04:08:07;;;;;;;1.13;0.57;;;;;;;4.72;100.00;92671.63;2121267;27;20018;-78
2023/11/07 04:09:08;;;;;;;1.50;0.52;;;;;;;4.65;100.00;92669.75;2114101;28;20074;-78
2023/11/07 04:10:09;;;;;;;0.70;0.57;;;;;;;4.61;100.00;92666.41;2098717;28;20095;-78
2023/11/07 04:11:10;;;;;;;2.20;0.50;;;;;;;4.69;100.00;92662.53;2106947;28;20106;-80
2023/11/07 04:12:12;;;;;;;0.73;0.60;;;;;;;4.76;100.00;92667.03;2115317;28;20047;-77
2023/11/07 04:13:13;;;;;;;1.90;0.50;;;;;;;4.67;100.00;92664.09;2107015;28;20508;-78
2023/11/07 04:14:17;;;;;;;1.55;0.40;;;;;;;4.91;100.00;92660.50;2106913;28;20024;-82
2023/11/07 04:15:19;;;;;;;1.40;0.60;;;;;;;5.02;100.00;92666.47;2107568;28;20386;-79
2023/11/07 04:16:20;;;;;;;1.63;0.57;;;;;;;4.89;100.00;92667.34;2112958;27;20046;-80
2023/11/07 04:17:21;;;;;;;0.68;0.50;;;;;;;4.81;100.00;92663.97;2113361;27;20019;-80
2023/11/07 04:18:23;;;;;;;0.43;0.40;;;;;;;4.65;100.00;92666.34;2110606;28;20028;-80
2023/11/07 04:19:24;;;;;;;2.78;0.60;;;;;;;4.61;100.00;92669.06;2121128;27;20026;-78
2023/11/07 04:20:25;;;;;;;0.50;0.50;;;;;;;4.55;100.00;92673.97;2115225;28;20027;-81
2023/11/07 04:21:27;;;;;;;2.60;0.50;;;;;;;4.47;100.00;92666.47;2130136;27;20370;-79
2023/11/07 04:22:28;;;;;;;2.95;0.70;;;;;;;4.33;100.00;92669.97;2123952;27;20368;-80
2023/11/07 04:24:12;;;;;;;1.48;0.57;;;;;;;4.25;100.00;92660.56;2121881;27;20089;-79
2023/11/07 04:25:13;;;;;;;1.33;0.60;;;;;;;4.19;100.00;92662.84;2119627;27;20110;-78
2023/11/07 04:26:14;;;;;;;2.03;0.85;;;;;;;4.12;100.00;92662.13;2129277;27;20034;-80
2023/11/07 04:27:15;;;;;;;2.65;0.70;;;;;;;4.03;100.00;92668.59;2122980;27;20081;-80
2023/11/07 04:28:16;;;;;;;0.50;0.50;;;;;;;4.11;100.00;92669.31;2108387;28;20149;-78
2023/11/07 04:29:17;;;;;;;2.28;0.57;;;;;;;4.14;100.00;92667.81;2107232;27;20103;-82
2023/11/07 04:30:18;;;;;;;1.17;0.65;;;;;;;4.24;100.00;92667.75;2119553;27;20024;-80
2023/11/07 04:31:19;;;;;;;2.70;0.50;;;;;;;4.23;100.00;92660.19;2106855;28;20056;-80
2023/11/07 04:32:21;;;;;;;0.85;0.40;;;;;;;4.17;100.00;92664.38;2106663;28;20028;-79
2023/11/07 04:33:22;;;;;;;1.27;0.60;;;;;;;4.29;100.00;92661.28;2106926;28;20023;-78
2023/11/07 04:34:23;;;;;;;1.38;0.50;;;;;;;4.31;100.00;92671.50;2123907;27;20019;-82
2023/11/07 04:35:25;;;;;;;2.70;0.40;;;;;;;4.40;100.00;92671.81;2123896;27;20575;-77
2023/11/07 04:36:27;;;;;;;2.05;0.40;;;;;;;4.24;100.00;92662.44;2123772;27;20441;-83
2023/11/07 04:37:28;;;;;;;3.35;0.45;;;;;;;4.38;100.00;92666.16;2130680;27;20026;-79
2023/11/07 04:38:30;;;;;;;1.00;0.50;;;;;;;4.46;100.00;92667.63;2125021;27;20106;-81
2023/11/07 04:39:31;;;;;;;0.40;0.40;;;;;;;4.36;100.00;92665.81;2118216;27;20031;-79
2023/11/07 04:40:32;;;;;;;1.67;0.52;;;;;;;4.22;100.00;92670.03;2098332;28;20020;-81
2023/11/07 04:41:35;;;;;;;1.42;0.40;;;;;;;4.16;100.00;92670.81;2106778;28;20033;-83
2023/11/07 04:42:36;;;;;;;0.40;0.40;;;;;;;4.24;100.00;92672.28;2107048;28;20484;-80
2023/11/07 04:43:37;;;;;;;0.55;0.50;;;;;;;4.32;100.00;92665.81;2106705;28;20023;-78
2023/11/07 04:44:39;;;;;;;2.70;0.70;;;;;;;4.45;100.00;92668.78;2099946;28;20024;-82
2023/11/07 04:45:40;;;;;;;1.48;0.45;;;;;;;4.36;100.00;92671.09;2106772;28;20472;-80
2023/11/07 04:46:42;;;;;;;0.45;0.40;;;;;;;4.32;100.00;92665.06;2116823;28;20016;-82
2023/11/07 04:47:43;;;;;;;1.52;0.60;;;;;;;4.20;100.00;92666.25;2125035;27;20061;-80
2023/11/07 04:48:44;;;;;;;5.15;0.50;;;;;;;4.34;100.00;92662.78;2115657;28;20027;-77
2023/11/07 04:49:45;;;;;;;0.50;0.50;;;;;;;4.13;100.00;92661.75;2124314;27;20019;-81
2023/11/07 04:50:46;;;;;;;0.93;0.50;;;;;;;4.14;100.00;92665.16;2120117;27;20563;-80
2023/11/07 04:51:47;;;;;;;1.00;0.63;;;;;;;4.21;100.00;92665.84;2126123;27;20026;-80
2023/11/07 04:52:48;;;;;;;0.93;0.60;;;;;;;4.26;100.00;92665.47;2123378;27;20023;-80